Shemah Yisrael!
Hear, O Israel: the LORD our God, the LORD is one.
You shall love the LORD your God with all your heart and with all your soul and with all your might.
(Deuteronomy 6:4-5)
Houston / Ellington, TX, United States (KEFD) 29-36N 095-10W
Jul 22, 2018 - 02:50 AM EDT / 2018.07.22 0650 UTC
Wind: from the SW (220 degrees) at 9 MPH (8 KT):0
Visibility: 10 mile(s):0
Sky conditions: partly cloudy
Temperature: 78 F (26 C)
Dew Point: 75 F (24 C)
Relative Humidity: 88%
Pressure (altimeter): 29.96 in. Hg (1014 hPa)
ob: KEFD 220650Z 22008KT 10SM SCT250 26/24 A2996
cycle: 7
w e b m a s t e r   a t   s h e m a h   d o t   n e t